Time;durP1;ratioP1;P1;durP2;ratioP2;P2;SDS_P1;SDS_P2;PMS_P1;PMS_P2;Temp;Humidity;BMP_temperature;BMP_pressure;BME280_temperature;BME280_humidity;BME280_pressure;Samples;Min_cycle;Max_cycle;Signal;HPM_P1;HPM_P2
2022/04/08 00:00:14;;;;;;;;;;;;;;;7.48;53.87;99241.63;1774002;80;20233;-58
2022/04/08 00:03:20;;;;;;;;;;;;;;;7.46;53.89;99237.72;1773786;80;20221;-58
2022/04/08 00:06:27;;;;;;;;;;;;;;;7.45;53.99;99240.09;1773908;80;20190;-57
2022/04/08 00:09:32;;;;;;;;;;;;;;;7.46;54.11;99235.00;1773929;81;20256;-58
2022/04/08 00:12:38;;;;;;;;;;;;;;;7.47;53.98;99230.38;1773649;81;20513;-58
2022/04/08 00:15:44;;;;;;;;;;;;;;;7.44;53.82;99220.72;1773918;80;20511;-58
2022/04/08 00:18:49;;;;;;;;;;;;;;;7.39;53.81;99222.28;1773890;81;20226;-59
2022/04/08 00:21:53;;;;;;;;;;;;;;;7.36;53.99;99219.43;1774039;80;20198;-59
2022/04/08 00:24:57;;;;;;;;;;;;;;;7.36;54.14;99213.98;1773947;80;20295;-58
2022/04/08 00:28:03;;;;;;;;;;;;;;;7.37;54.30;99209.39;1773970;80;20194;-59
2022/04/08 00:31:08;;;;;;;;;;;;;;;7.37;54.37;99208.03;1773934;80;20201;-58
2022/04/08 00:34:14;;;;;;;;;;;;;;;7.33;54.38;99204.83;1773756;81;20201;-59
2022/04/08 00:37:18;;;;;;;;;;;;;;;7.29;54.60;99197.22;1766621;79;20230;-59
2022/04/08 00:40:22;;;;;;;;;;;;;;;7.27;54.65;99190.59;1773825;80;20234;-59
2022/04/08 00:43:31;;;;;;;;;;;;;;;7.24;54.70;99178.72;1774659;80;20186;-58
2022/04/08 00:46:38;;;;;;;;;;;;;;;7.23;54.78;99182.45;1774009;80;20541;-58
2022/04/08 00:49:44;;;;;;;;;;;;;;;7.21;54.79;99172.30;1774098;80;20206;-58
2022/04/08 00:52:50;;;;;;;;;;;;;;;7.14;54.90;99173.19;1773957;80;20194;-58
2022/04/08 00:55:56;;;;;;;;;;;;;;;7.11;55.00;99164.89;1773612;80;20198;-58
2022/04/08 00:59:03;;;;;;;;;;;;;;;7.11;55.06;99161.31;1773811;80;20186;-59
2022/04/08 01:02:08;;;;;;;;;;;;;;;7.12;55.16;99161.13;1774166;80;20601;-59
2022/04/08 01:05:14;;;;;;;;;;;;;;;7.12;55.30;99161.13;1773941;80;20204;-59
2022/04/08 01:08:24;;;;;;;;;;;;;;;7.12;55.64;99157.58;1774679;80;20194;-58
2022/04/08 01:11:28;;;;;;;;;;;;;;;7.10;55.79;99154.19;1766294;80;20267;-58
2022/04/08 01:14:33;;;;;;;;;;;;;;;7.10;55.82;99157.73;1773718;80;20237;-58
2022/04/08 01:17:39;;;;;;;;;;;;;;;7.11;55.82;99155.36;1773603;80;20529;-59
2022/04/08 01:20:45;;;;;;;;;;;;;;;7.09;55.98;99157.42;1774057;80;20202;-58
2022/04/08 01:23:53;;;;;;;;;;;;;;;7.09;56.12;99161.50;1774402;80;20250;-59
2022/04/08 01:26:59;;;;;;;;;;;;;;;7.06;56.11;99156.93;1773472;80;20197;-59
2022/04/08 01:30:04;;;;;;;;;;;;;;;7.03;56.17;99151.86;1773817;80;20190;-59
2022/04/08 01:33:08;;;;;;;;;;;;;;;6.98;56.26;99139.31;1774207;80;20205;-58
2022/04/08 01:36:16;;;;;;;;;;;;;;;6.89;56.37;99133.63;1773992;80;20198;-59
2022/04/08 01:39:21;;;;;;;;;;;;;;;6.84;56.67;99129.24;1773427;79;20197;-58
2022/04/08 01:42:26;;;;;;;;;;;;;;;6.81;57.00;99120.95;1774002;81;20194;-59
2022/04/08 01:45:31;;;;;;;;;;;;;;;6.79;57.21;99116.20;1773764;80;20186;-59
2022/04/08 01:48:36;;;;;;;;;;;;;;;6.79;57.42;99116.70;1773905;81;20214;-59
2022/04/08 01:51:42;;;;;;;;;;;;;;;6.76;57.61;99120.64;1773917;80;20213;-59
2022/04/08 01:54:48;;;;;;;;;;;;;;;6.72;57.68;99113.89;1765720;80;20186;-57
2022/04/08 01:57:52;;;;;;;;;;;;;;;6.69;57.79;99110.16;1774011;81;20566;-58
2022/04/08 02:01:01;;;;;;;;;;;;;;;6.70;57.94;99111.86;1774589;80;20194;-57
2022/04/08 02:04:09;;;;;;;;;;;;;;;6.72;57.99;99106.24;1773885;81;20186;-58
2022/04/08 02:07:15;;;;;;;;;;;;;;;6.75;58.04;99103.16;1773942;81;20213;-58
2022/04/08 02:10:19;;;;;;;;;;;;;;;6.74;57.99;99100.94;1773908;80;20177;-59
2022/04/08 02:13:25;;;;;;;;;;;;;;;6.78;58.01;99101.42;1773838;81;20245;-59
2022/04/08 02:16:29;;;;;;;;;;;;;;;6.78;57.92;99096.84;1773890;80;20474;-58
2022/04/08 02:19:36;;;;;;;;;;;;;;;6.78;57.84;99095.48;1773646;81;20194;-59
2022/04/08 02:22:40;;;;;;;;;;;;;;;6.75;57.90;99084.98;1766532;81;20241;-58
2022/04/08 02:25:46;;;;;;;;;;;;;;;6.77;58.00;99092.41;1773859;80;20174;-64
2022/04/08 02:28:52;;;;;;;;;;;;;;;6.78;58.00;99086.47;1774033;81;20307;-58
2022/04/08 02:31:58;;;;;;;;;;;;;;;6.76;58.01;99079.00;1774044;80;20194;-59
2022/04/08 02:35:03;;;;;;;;;;;;;;;6.75;58.05;99087.69;1774128;80;20213;-58
2022/04/08 02:38:09;;;;;;;;;;;;;;;6.74;58.07;99076.47;1773821;81;20194;-60
2022/04/08 02:41:13;;;;;;;;;;;;;;;6.74;58.26;99072.38;1771273;80;20550;-58
2022/04/08 02:44:19;;;;;;;;;;;;;;;6.79;58.41;99066.39;1773913;81;20241;-57
2022/04/08 02:47:24;;;;;;;;;;;;;;;6.83;58.42;99072.66;1773961;81;20228;-59
2022/04/08 02:50:30;;;;;;;;;;;;;;;6.88;58.50;99066.13;1773989;80;20218;-59
2022/04/08 02:53:36;;;;;;;;;;;;;;;6.92;58.60;99075.62;1773731;81;20514;-59
2022/04/08 02:56:41;;;;;;;;;;;;;;;6.96;58.73;99059.79;1773934;80;20202;-59
2022/04/08 02:59:45;;;;;;;;;;;;;;;7.00;58.92;99052.94;1773981;80;20530;-58
2022/04/08 03:02:51;;;;;;;;;;;;;;;7.03;58.92;99049.84;1774040;81;20533;-59
2022/04/08 03:05:54;;;;;;;;;;;;;;;7.06;59.13;99056.27;1773787;80;20196;-58
2022/04/08 03:09:00;;;;;;;;;;;;;;;7.09;59.13;99047.22;1774026;81;20209;-59
2022/04/08 03:12:06;;;;;;;;;;;;;;;7.11;59.33;99037.00;1774098;80;20186;-59
2022/04/08 03:15:12;;;;;;;;;;;;;;;7.15;59.49;99042.39;1774076;80;20202;-58
2022/04/08 03:18:17;;;;;;;;;;;;;;;7.19;59.70;99037.42;1773890;81;20205;-58
2022/04/08 03:21:23;;;;;;;;;;;;;;;7.23;59.79;99040.12;1773723;80;20222;-59
2022/04/08 03:24:30;;;;;;;;;;;;;;;7.24;59.99;99031.77;1774036;81;20566;-58
2022/04/08 03:27:37;;;;;;;;;;;;;;;7.28;60.18;99031.70;1773928;81;20573;-59
2022/04/08 03:30:42;;;;;;;;;;;;;;;7.30;60.43;99029.64;1773600;80;20217;-60
2022/04/08 03:33:48;;;;;;;;;;;;;;;7.33;60.64;99022.45;1773734;81;20519;-59
2022/04/08 03:36:55;;;;;;;;;;;;;;;7.37;60.89;99027.84;1766260;81;20241;-57
2022/04/08 03:39:59;;;;;;;;;;;;;;;7.43;61.08;99037.14;1774023;79;20291;-59
2022/04/08 03:43:05;;;;;;;;;;;;;;;7.46;61.22;99029.45;1773989;80;20210;-58
2022/04/08 03:46:13;;;;;;;;;;;;;;;7.51;61.46;99025.66;1800539;79;20201;-57
2022/04/08 03:49:26;;;;;;;;;;;;;;;7.57;61.58;99022.16;1807580;79;20257;-58
2022/04/08 03:52:32;;;;;;;;;;;;;;;7.64;61.71;99025.80;1807524;79;20186;-59
2022/04/08 03:55:38;;;;;;;;;;;;;;;7.71;61.77;99024.52;1807468;79;20237;-58
2022/04/08 03:58:42;;;;;;;;;;;;;;;7.77;61.82;99025.11;1807434;79;20213;-59
2022/04/08 04:01:47;;;;;;;;;;;;;;;7.83;61.96;99012.63;1806733;79;20205;-58
2022/04/08 04:04:59;;;;;;;;;;;;;;;7.88;62.01;99008.81;1807145;79;20225;-56
2022/04/08 04:08:00;;;;;;;;;;;;;;;7.94;62.14;99013.48;1807312;79;20517;-60
2022/04/08 04:11:06;;;;;;;;;;;;;;;7.99;62.18;99006.94;1806702;79;20564;-59
2022/04/08 04:14:11;;;;;;;;;;;;;;;8.05;62.21;99011.61;1773016;81;20217;-59
2022/04/08 04:17:18;;;;;;;;;;;;;;;8.13;62.15;99009.62;1737150;82;20212;-60
2022/04/08 04:20:25;;;;;;;;;;;;;;;8.22;62.23;99011.68;1724192;83;20199;-60
2022/04/08 04:23:33;;;;;;;;;;;;;;;8.33;62.28;99015.28;1722210;83;20571;-60
2022/04/08 04:26:36;;;;;;;;;;;;;;;8.43;62.30;99017.17;1722620;83;20215;-59
2022/04/08 04:29:41;;;;;;;;;;;;;;;8.51;62.24;99012.95;1722778;83;20210;-58
2022/04/08 04:32:47;;;;;;;;;;;;;;;8.60;62.28;99008.53;1722672;83;20323;-59
2022/04/08 04:35:52;;;;;;;;;;;;;;;8.69;62.21;99013.30;1722777;83;20271;-58
2022/04/08 04:38:57;;;;;;;;;;;;;;;8.79;62.12;99009.72;1722314;83;20239;-59
2022/04/08 04:42:02;;;;;;;;;;;;;;;8.88;62.09;99008.52;1722280;80;20207;-59
2022/04/08 04:45:10;;;;;;;;;;;;;;;8.98;61.97;99003.05;1775405;80;20210;-58
2022/04/08 04:48:12;;;;;;;;;;;;;;;9.08;61.89;99002.70;1739025;81;20299;-59
2022/04/08 04:51:06;;;;;;;;;;;;;;;9.19;61.85;99000.78;1743388;82;20218;-58
2022/04/08 04:54:12;;;;;;;;;;;;;;;9.28;61.79;98994.61;1797139;79;20546;-59
2022/04/08 04:57:18;;;;;;;;;;;;;;;9.35;61.50;99000.97;1806549;79;20552;-59
2022/04/08 05:00:23;;;;;;;;;;;;;;;9.40;61.53;98996.60;1798971;79;20209;-60
2022/04/08 05:03:33;;;;;;;;;;;;;;;9.48;61.63;98999.13;1801853;79;20209;-63
2022/04/08 05:06:37;;;;;;;;;;;;;;;9.57;61.62;98994.36;1788699;79;20197;-59
2022/04/08 05:09:44;;;;;;;;;;;;;;;9.63;61.67;98987.56;1806274;79;20178;-59
2022/04/08 05:12:51;;;;;;;;;;;;;;;9.72;61.51;98986.33;1807393;79;20193;-55
2022/04/08 05:15:59;;;;;;;;;;;;;;;9.81;61.37;98989.73;1807417;79;20237;-60
2022/04/08 05:19:04;;;;;;;;;;;;;;;9.87;61.34;98987.02;1806744;79;20201;-61
2022/04/08 05:22:12;;;;;;;;;;;;;;;9.95;61.26;98985.98;1781381;79;20202;-56
2022/04/08 05:25:17;;;;;;;;;;;;;;;10.03;61.42;98989.39;1773910;81;20215;-60
2022/04/08 05:28:21;;;;;;;;;;;;;;;10.11;61.29;98985.13;1707703;83;20245;-60
2022/04/08 05:31:30;;;;;;;;;;;;;;;10.19;61.19;98988.19;1711453;82;20201;-57
2022/04/08 05:34:36;;;;;;;;;;;;;;;10.29;61.13;98983.98;1771607;79;20245;-58
2022/04/08 05:37:46;;;;;;;;;;;;;;;10.40;61.20;98979.27;1773076;79;20292;-61
2022/04/08 05:40:51;;;;;;;;;;;;;;;10.52;61.28;98977.61;1781637;79;20577;-58
2022/04/08 05:44:00;;;;;;;;;;;;;;;10.66;61.42;98978.44;1771236;81;20204;-59
2022/04/08 05:47:11;;;;;;;;;;;;;;;10.79;61.38;98969.38;1772411;80;20750;-60
2022/04/08 05:50:24;;;;;;;;;;;;;;;10.91;61.06;98967.16;1772539;80;20586;-60
2022/04/08 05:53:39;;;;;;;;;;;;;;;10.99;60.94;98962.83;1787087;79;20280;-61
2022/04/08 05:56:44;;;;;;;;;;;;;;;11.09;60.90;98962.40;1806152;79;20205;-62
2022/04/08 05:59:50;;;;;;;;;;;;;;;11.17;60.68;98971.23;1785334;79;20553;-63
2022/04/08 06:02:58;;;;;;;;;;;;;;;11.24;60.46;98968.48;1773910;81;20213;-62
2022/04/08 06:06:04;;;;;;;;;;;;;;;11.34;60.49;98964.75;1773272;81;20552;-61
2022/04/08 06:09:09;;;;;;;;;;;;;;;11.43;60.21;98970.33;1773236;79;20376;-63
2022/04/08 06:12:15;;;;;;;;;;;;;;;11.48;60.08;98971.90;1790277;79;20585;-60
2022/04/08 06:15:20;;;;;;;;;;;;;;;11.56;59.88;98967.55;1805627;79;20284;-60
2022/04/08 06:18:26;;;;;;;;;;;;;;;11.65;60.05;98953.39;1800953;79;20248;-60
2022/04/08 06:21:31;;;;;;;;;;;;;;;11.73;59.71;98956.44;1774250;79;20257;-61
2022/04/08 06:24:40;;;;;;;;;;;;;;;11.80;59.55;98957.23;1784439;79;20601;-60
2022/04/08 06:27:47;;;;;;;;;;;;;;;11.88;59.56;98951.50;1795621;80;20581;-62
2022/04/08 06:30:53;;;;;;;;;;;;;;;12.00;59.33;98950.58;1799706;79;20554;-61
2022/04/08 06:34:00;;;;;;;;;;;;;;;12.13;58.99;98942.80;1790452;79;20212;-62
2022/04/08 06:37:05;;;;;;;;;;;;;;;12.23;58.69;98932.19;1788298;79;20270;-60
2022/04/08 06:40:15;;;;;;;;;;;;;;;12.33;58.53;98942.16;1798908;79;20799;-61
2022/04/08 06:43:24;;;;;;;;;;;;;;;12.44;58.67;98938.69;1773012;79;20204;-61
2022/04/08 06:46:45;;;;;;;;;;;;;;;12.58;58.06;98941.64;1761133;80;20211;-61
2022/04/08 06:49:53;;;;;;;;;;;;;;;12.67;57.48;98949.89;1710514;83;20222;-62
2022/04/08 06:53:03;;;;;;;;;;;;;;;12.77;57.41;98950.76;1727434;83;20210;-61
2022/04/08 06:56:12;;;;;;;;;;;;;;;12.89;57.36;98953.92;1765048;80;20233;-61
2022/04/08 06:59:19;;;;;;;;;;;;;;;13.04;57.30;98947.59;1772731;81;20593;-62
2022/04/08 07:02:43;;;;;;;;;;;;;;;13.20;57.01;98947.00;1773457;81;20265;-61
2022/04/08 07:06:06;;;;;;;;;;;;;;;13.35;56.72;98937.02;1780497;80;20259;-62
2022/04/08 07:09:15;;;;;;;;;;;;;;;13.50;55.95;98945.18;1763931;79;20271;-58
2022/04/08 07:12:22;;;;;;;;;;;;;;;13.58;55.68;98933.03;1765313;80;20417;-63
2022/04/08 07:15:32;;;;;;;;;;;;;;;13.67;55.80;98939.06;1818593;78;20650;-61
2022/04/08 07:18:39;;;;;;;;;;;;;;;13.80;55.66;98928.72;1783883;78;20284;-64
2022/04/08 07:21:51;;;;;;;;;;;;;;;13.97;55.61;98928.38;1767164;80;20611;-59
2022/04/08 07:25:06;;;;;;;;;;;;;;;14.12;54.69;98927.43;1776276;80;20214;-60
2022/04/08 07:28:10;;;;;;;;;;;;;;;14.21;53.65;98925.17;1792251;80;20558;-61
2022/04/08 07:31:15;;;;;;;;;;;;;;;14.23;53.50;98929.38;1766652;80;20204;-61
2022/04/08 07:34:22;;;;;;;;;;;;;;;14.35;53.92;98926.14;1762629;81;20276;-62
2022/04/08 07:37:38;;;;;;;;;;;;;;;14.48;53.59;98913.55;1766373;80;20243;-57
2022/04/08 07:40:44;;;;;;;;;;;;;;;14.64;53.28;98914.77;1789431;80;20206;-61
2022/04/08 07:44:10;;;;;;;;;;;;;;;14.82;52.43;98909.17;1758040;77;20218;-61
2022/04/08 07:47:18;;;;;;;;;;;;;;;15.01;51.46;98914.30;1744258;81;20835;-59
2022/04/08 07:50:33;;;;;;;;;;;;;;;15.13;51.45;98919.82;1737917;81;20570;-60
2022/04/08 07:53:42;;;;;;;;;;;;;;;15.25;50.42;98925.34;1756446;81;20250;-61
2022/04/08 07:56:51;;;;;;;;;;;;;;;15.35;50.07;98918.68;1768256;81;20541;-61
2022/04/08 07:59:58;;;;;;;;;;;;;;;15.49;49.37;98921.50;1767988;81;20471;-61
2022/04/08 08:03:15;;;;;;;;;;;;;;;15.57;49.50;98924.70;1768265;81;20206;-58
2022/04/08 08:06:42;;;;;;;;;;;;;;;15.62;48.73;98926.20;1747752;81;20625;-59
2022/04/08 08:10:06;;;;;;;;;;;;;;;15.58;49.12;98929.16;1731522;83;20311;-58
2022/04/08 08:13:16;;;;;;;;;;;;;;;15.67;48.95;98930.45;1766504;81;20210;-58
2022/04/08 08:16:45;;;;;;;;;;;;;;;15.70;48.59;98920.30;1757181;81;20241;-60
2022/04/08 08:20:18;;;;;;;;;;;;;;;15.75;48.74;98919.03;1760802;81;20221;-61
2022/04/08 08:23:33;;;;;;;;;;;;;;;15.89;48.53;98911.29;1739492;81;20223;-61
2022/04/08 08:26:42;;;;;;;;;;;;;;;16.12;48.62;98913.97;1762570;81;20205;-60
2022/04/08 08:29:57;;;;;;;;;;;;;;;16.37;48.48;98907.00;1710049;83;20201;-60
2022/04/08 08:33:06;;;;;;;;;;;;;;;16.63;46.84;98908.32;1742823;81;20204;-59
2022/04/08 08:36:30;;;;;;;;;;;;;;;16.80;45.92;98900.02;1736429;82;20533;-57
2022/04/08 08:39:40;;;;;;;;;;;;;;;16.96;45.01;98907.47;1758584;81;20257;-58
2022/04/08 08:42:54;;;;;;;;;;;;;;;17.00;44.66;98894.83;1748675;81;20232;-57
2022/04/08 08:46:05;;;;;;;;;;;;;;;17.00;44.25;98897.02;1750429;79;20205;-58
2022/04/08 08:49:29;;;;;;;;;;;;;;;17.10;44.35;98887.51;1798348;80;20644;-58
2022/04/08 08:52:36;;;;;;;;;;;;;;;17.34;44.29;98891.73;1799390;80;20511;-57
2022/04/08 08:55:44;;;;;;;;;;;;;;;17.56;43.96;98883.47;1772311;81;20249;-58
2022/04/08 08:58:50;;;;;;;;;;;;;;;17.81;43.49;98881.86;1773850;79;20603;-59
2022/04/08 09:01:58;;;;;;;;;;;;;;;18.12;43.88;98876.12;1771031;80;20258;-56
2022/04/08 09:05:30;;;;;;;;;;;;;;;18.32;42.71;98879.63;1795506;79;20834;-56
2022/04/08 09:08:42;;;;;;;;;;;;;;;18.46;41.88;98870.66;1773584;80;20207;-54
2022/04/08 09:11:49;;;;;;;;;;;;;;;18.60;41.76;98863.58;1772985;79;20267;-57
2022/04/08 09:15:00;;;;;;;;;;;;;;;18.71;40.65;98870.06;1801647;79;20663;-58
2022/04/08 09:18:17;;;;;;;;;;;;;;;18.67;40.80;98871.67;1806134;79;20321;-58
2022/04/08 09:21:29;;;;;;;;;;;;;;;18.68;40.73;98865.87;1799192;79;20241;-60
2022/04/08 09:24:36;;;;;;;;;;;;;;;18.73;40.40;98874.23;1773256;80;20213;-58
2022/04/08 09:27:42;;;;;;;;;;;;;;;18.71;40.54;98869.49;1773161;81;20260;-62
2022/04/08 09:30:49;;;;;;;;;;;;;;;18.65;40.21;98869.17;1774297;81;20529;-59
2022/04/08 09:34:00;;;;;;;;;;;;;;;18.69;40.55;98869.48;1779995;79;20292;-59
2022/04/08 09:37:18;;;;;;;;;;;;;;;18.72;39.76;98871.19;1774362;80;20215;-59
2022/04/08 09:40:51;;;;;;;;;;;;;;;18.69;39.86;98865.33;1774695;80;20552;-58
2022/04/08 09:44:06;;;;;;;;;;;;;;;18.82;40.35;98864.31;1787133;79;20204;-59
2022/04/08 09:47:15;;;;;;;;;;;;;;;18.97;39.92;98860.81;1772286;80;20205;-58
2022/04/08 09:50:34;;;;;;;;;;;;;;;18.99;40.15;98872.48;1767019;79;20228;-60
2022/04/08 09:54:12;;;;;;;;;;;;;;;19.04;40.01;98862.25;1750392;81;20319;-59
2022/04/08 09:57:33;;;;;;;;;;;;;;;19.07;39.81;98862.28;1731123;83;20586;-58
2022/04/08 10:00:59;;;;;;;;;;;;;;;18.93;39.62;98863.28;1735962;82;20212;-60
2022/04/08 10:04:14;;;;;;;;;;;;;;;18.85;40.01;98865.16;1731168;82;20232;-58
2022/04/08 10:07:27;;;;;;;;;;;;;;;18.80;40.32;98874.01;1711547;84;20239;-59
2022/04/08 10:11:21;;;;;;;;;;;;;;;18.74;40.48;98868.14;1775041;80;20235;-59
2022/04/08 10:14:49;;;;;;;;;;;;;;;18.74;40.87;98867.58;1774303;81;20283;-60
2022/04/08 10:18:07;;;;;;;;;;;;;;;18.82;40.75;98878.74;1774204;81;20211;-59
2022/04/08 10:21:23;;;;;;;;;;;;;;;18.84;40.70;98881.53;1774186;81;20255;-58
2022/04/08 10:25:03;;;;;;;;;;;;;;;18.99;40.99;98876.11;1778483;80;20294;-59
2022/04/08 10:28:11;;;;;;;;;;;;;;;19.10;40.51;98882.01;1773724;80;20550;-58
2022/04/08 10:31:24;;;;;;;;;;;;;;;19.25;40.35;98875.16;1773759;80;20254;-60
2022/04/08 10:34:32;;;;;;;;;;;;;;;19.33;40.64;98884.39;1773641;81;20190;-59
2022/04/08 10:37:43;;;;;;;;;;;;;;;19.52;40.08;98888.11;1773273;81;20612;-60
2022/04/08 10:41:00;;;;;;;;;;;;;;;19.77;39.62;98880.74;1775026;79;20217;-59
2022/04/08 10:44:03;;;;;;;;;;;;;;;19.97;39.07;98885.52;1774453;81;20822;-56
2022/04/08 10:47:18;;;;;;;;;;;;;;;20.11;38.86;98886.66;1786749;79;20206;-60
2022/04/08 10:50:33;;;;;;;;;;;;;;;20.16;39.20;98892.27;1753005;81;20245;-57
2022/04/08 10:53:41;;;;;;;;;;;;;;;20.16;38.71;98893.66;1756657;81;20209;-57
2022/04/08 10:57:06;;;;;;;;;;;;;;;20.14;38.85;98890.31;1754992;81;20212;-57
2022/04/08 11:00:16;;;;;;;;;;;;;;;20.33;38.32;98895.09;1758506;81;20204;-57
2022/04/08 11:03:27;;;;;;;;;;;;;;;20.50;37.71;98887.34;1756829;81;20247;-58
2022/04/08 11:06:34;;;;;;;;;;;;;;;20.68;37.63;98884.02;1722359;82;20563;-57
2022/04/08 11:09:41;;;;;;;;;;;;;;;20.87;37.07;98885.69;1748230;81;20215;-56
2022/04/08 11:12:53;;;;;;;;;;;;;;;20.97;36.64;98884.88;1755631;81;20248;-59
2022/04/08 11:15:58;;;;;;;;;;;;;;;21.07;35.91;98881.55;1748279;81;20207;-58
2022/04/08 11:19:28;;;;;;;;;;;;;;;21.05;36.38;98878.76;1765303;81;20278;-58
2022/04/08 11:22:34;;;;;;;;;;;;;;;21.19;35.97;98881.23;1759217;81;20224;-58
2022/04/08 11:25:40;;;;;;;;;;;;;;;21.28;35.63;98876.20;1710601;82;20211;-58
2022/04/08 11:29:19;;;;;;;;;;;;;;;21.37;35.12;98874.55;1697464;84;20209;-59
2022/04/08 11:32:26;;;;;;;;;;;;;;;21.46;35.22;98866.42;1748108;81;20220;-59
2022/04/08 11:35:31;;;;;;;;;;;;;;;21.53;34.50;98861.41;1766014;81;20248;-59
2022/04/08 11:38:42;;;;;;;;;;;;;;;21.50;34.73;98856.41;1756064;81;20247;-59
2022/04/08 11:41:42;;;;;;;;;;;;;;;21.57;34.14;98845.23;1760539;81;20486;-59
2022/04/08 11:44:43;;;;;;;;;;;;;;;21.65;34.04;98845.20;1760576;81;20568;-58
2022/04/08 11:47:53;;;;;;;;;;;;;;;21.67;33.42;98848.53;1761490;81;20256;-58
2022/04/08 11:50:58;;;;;;;;;;;;;;;21.55;33.31;98846.64;1774700;79;20628;-58
2022/04/08 11:54:08;;;;;;;;;;;;;;;21.44;33.56;98848.61;1785427;79;20249;-59
2022/04/08 11:57:21;;;;;;;;;;;;;;;21.39;33.95;98843.05;1776791;79;20307;-60
2022/04/08 12:00:48;;;;;;;;;;;;;;;21.33;33.80;98826.09;1765872;81;20201;-58
2022/04/08 12:03:58;;;;;;;;;;;;;;;21.39;34.25;98826.92;1785874;79;20213;-58
2022/04/08 12:07:09;;;;;;;;;;;;;;;21.39;34.20;98820.78;1798703;79;20865;-57
2022/04/08 12:10:30;;;;;;;;;;;;;;;21.15;34.03;98822.55;1786776;79;20198;-59
2022/04/08 12:14:03;;;;;;;;;;;;;;;20.85;34.40;98826.74;1772419;79;20253;-58
2022/04/08 12:17:15;;;;;;;;;;;;;;;20.56;34.61;98831.19;1797865;79;20405;-59
2022/04/08 12:20:40;;;;;;;;;;;;;;;20.32;34.92;98830.91;1794769;78;20368;-57
2022/04/08 12:24:10;;;;;;;;;;;;;;;20.08;35.35;98826.09;1758696;80;20211;-58
2022/04/08 12:27:23;;;;;;;;;;;;;;;19.88;36.00;98824.12;1771246;81;20215;-57
2022/04/08 12:30:34;;;;;;;;;;;;;;;19.60;36.72;98839.83;1771095;81;20203;-56
2022/04/08 12:33:46;;;;;;;;;;;;;;;19.17;37.44;98841.55;1772216;81;20201;-58
2022/04/08 12:36:53;;;;;;;;;;;;;;;18.78;38.17;98856.25;1788224;79;20242;-58
2022/04/08 12:40:05;;;;;;;;;;;;;;;18.49;38.88;98853.51;1787433;79;20244;-57
2022/04/08 12:43:14;;;;;;;;;;;;;;;18.21;39.40;98853.77;1771717;81;20670;-57
2022/04/08 12:46:25;;;;;;;;;;;;;;;18.00;39.85;98852.45;1798629;79;20217;-57
2022/04/08 12:49:35;;;;;;;;;;;;;;;17.82;40.33;98861.38;1784994;77;20491;-56
2022/04/08 12:52:46;;;;;;;;;;;;;;;17.69;40.80;98858.19;1804276;79;20210;-55
2022/04/08 12:55:53;;;;;;;;;;;;;;;17.55;40.93;98866.59;1783905;79;20211;-56
2022/04/08 12:59:01;;;;;;;;;;;;;;;17.38;41.13;98865.76;1798172;79;20205;-53
2022/04/08 13:02:11;;;;;;;;;;;;;;;17.24;41.38;98874.14;1799636;79;20534;-58
2022/04/08 13:05:16;;;;;;;;;;;;;;;17.09;41.64;98866.49;1793106;79;20216;-56
2022/04/08 13:08:24;;;;;;;;;;;;;;;17.03;42.02;98875.78;1778404;79;20802;-56
2022/04/08 13:11:43;;;;;;;;;;;;;;;16.90;42.33;98876.69;1772934;81;20205;-55
2022/04/08 13:15:07;;;;;;;;;;;;;;;16.70;42.52;98884.11;1772814;81;20577;-55
2022/04/08 13:18:31;;;;;;;;;;;;;;;16.48;42.77;98882.33;1773076;81;20194;-56
2022/04/08 13:21:55;;;;;;;;;;;;;;;16.31;42.66;98890.05;1772893;81;20229;-55
2022/04/08 13:25:04;;;;;;;;;;;;;;;16.13;42.71;98877.83;1775024;79;20215;-55
2022/04/08 13:28:10;;;;;;;;;;;;;;;16.03;42.98;98876.25;1782315;79;20209;-56
2022/04/08 13:31:16;;;;;;;;;;;;;;;15.92;43.32;98871.63;1771562;81;20215;-55
2022/04/08 13:34:22;;;;;;;;;;;;;;;15.84;43.70;98870.64;1790123;79;20558;-57
2022/04/08 13:37:31;;;;;;;;;;;;;;;15.77;43.93;98874.11;1799440;79;20591;-58
2022/04/08 13:40:40;;;;;;;;;;;;;;;15.70;44.13;98876.69;1773840;79;20436;-58
2022/04/08 13:43:47;;;;;;;;;;;;;;;15.65;44.33;98879.38;1773964;80;20220;-58
2022/04/08 13:46:53;;;;;;;;;;;;;;;15.60;44.52;98880.08;1785327;79;20254;-58
2022/04/08 13:50:01;;;;;;;;;;;;;;;15.59;44.70;98881.70;1773965;81;20257;-58
2022/04/08 13:53:11;;;;;;;;;;;;;;;15.58;44.77;98886.94;1803894;79;20191;-58
2022/04/08 13:56:17;;;;;;;;;;;;;;;15.57;45.26;98893.55;1821518;79;20208;-58
2022/04/08 13:59:26;;;;;;;;;;;;;;;15.54;46.20;98888.52;1821415;79;20230;-59
2022/04/08 14:02:32;;;;;;;;;;;;;;;15.51;47.14;98896.72;1822347;79;20437;-58
2022/04/08 14:05:43;;;;;;;;;;;;;;;15.51;48.00;98892.59;1808889;79;20334;-56
2022/04/08 14:08:50;;;;;;;;;;;;;;;15.51;48.72;98880.70;1758404;81;20216;-59
2022/04/08 14:11:58;;;;;;;;;;;;;;;15.48;49.42;98879.29;1742588;81;20200;-57
2022/04/08 14:15:05;;;;;;;;;;;;;;;15.50;49.70;98888.16;1757673;81;20204;-58
2022/04/08 14:18:12;;;;;;;;;;;;;;;15.52;49.98;98874.13;1738244;82;20221;-58
2022/04/08 14:21:18;;;;;;;;;;;;;;;15.55;50.12;98882.76;1712327;84;20204;-57
2022/04/08 14:24:26;;;;;;;;;;;;;;;15.58;50.47;98884.18;1712331;84;20251;-57
2022/04/08 14:27:33;;;;;;;;;;;;;;;15.59;51.17;98890.83;1712492;84;20276;-57
2022/04/08 14:30:40;;;;;;;;;;;;;;;15.64;51.57;98894.23;1712833;84;20204;-58
2022/04/08 14:33:47;;;;;;;;;;;;;;;15.72;52.01;98891.94;1712939;84;20232;-59
2022/04/08 14:36:53;;;;;;;;;;;;;;;15.88;52.16;98900.81;1712761;84;20295;-59
2022/04/08 14:40:00;;;;;;;;;;;;;;;16.11;51.79;98895.18;1696796;84;20291;-58
2022/04/08 14:43:06;;;;;;;;;;;;;;;16.41;51.30;98895.73;1713880;82;20213;-59
2022/04/08 14:46:14;;;;;;;;;;;;;;;16.84;51.03;98895.67;1732160;82;20248;-58
2022/04/08 14:49:19;;;;;;;;;;;;;;;17.29;49.81;98899.11;1711827;84;20284;-58
2022/04/08 14:52:26;;;;;;;;;;;;;;;17.51;48.74;98889.78;1712354;80;20278;-58
2022/04/08 14:55:33;;;;;;;;;;;;;;;17.97;47.46;98881.48;1691467;83;20234;-57
2022/04/08 14:58:38;;;;;;;;;;;;;;;18.56;45.97;98883.77;1689457;83;20224;-58
2022/04/08 15:01:45;;;;;;;;;;;;;;;18.91;44.85;98891.01;1676813;85;20207;-59
2022/04/08 15:04:51;;;;;;;;;;;;;;;18.98;44.79;98876.38;1699021;83;20204;-58
2022/04/08 15:07:59;;;;;;;;;;;;;;;19.11;44.34;98878.66;1707208;83;20249;-59
2022/04/08 15:11:08;;;;;;;;;;;;;;;19.23;44.80;98876.54;1707827;83;20250;-59
2022/04/08 15:14:12;;;;;;;;;;;;;;;19.48;44.41;98880.87;1713323;82;20239;-59
2022/04/08 15:17:21;;;;;;;;;;;;;;;19.55;44.21;98877.28;1722182;82;20218;-58
2022/04/08 15:20:26;;;;;;;;;;;;;;;19.47;44.56;98879.21;1716216;82;20210;-59
2022/04/08 15:23:32;;;;;;;;;;;;;;;19.35;44.46;98882.73;1714675;82;20226;-59
2022/04/08 15:26:39;;;;;;;;;;;;;;;19.07;44.83;98891.41;1712418;82;20451;-59
2022/04/08 15:29:44;;;;;;;;;;;;;;;18.67;45.60;98885.00;1699876;82;20234;-59
2022/04/08 15:32:50;;;;;;;;;;;;;;;18.29;46.25;98881.00;1726307;82;20222;-57
2022/04/08 15:36:01;;;;;;;;;;;;;;;18.01;47.00;98892.88;1681458;82;20551;-59
2022/04/08 15:39:09;;;;;;;;;;;;;;;17.81;47.42;98899.01;1707073;82;20217;-58
2022/04/08 15:42:15;;;;;;;;;;;;;;;17.69;47.91;98908.00;1708698;82;20229;-58
2022/04/08 15:45:19;;;;;;;;;;;;;;;17.67;47.62;98912.41;1717068;82;20255;-59
2022/04/08 15:48:26;;;;;;;;;;;;;;;17.50;47.71;98921.86;1717183;82;20231;-58
2022/04/08 15:51:33;;;;;;;;;;;;;;;17.29;48.23;98912.41;1687128;82;20207;-58
2022/04/08 15:54:43;;;;;;;;;;;;;;;17.10;48.55;98908.78;1675146;85;20210;-58
2022/04/08 15:57:48;;;;;;;;;;;;;;;16.89;48.92;98918.69;1737564;82;20219;-58
2022/04/08 16:00:56;;;;;;;;;;;;;;;16.69;49.20;98918.36;1737294;82;20217;-58
2022/04/08 16:04:01;;;;;;;;;;;;;;;16.53;49.54;98940.44;1754012;81;20809;-58
2022/04/08 16:07:10;;;;;;;;;;;;;;;16.35;50.03;98946.45;1767228;81;20247;-58
2022/04/08 16:10:17;;;;;;;;;;;;;;;16.16;50.54;98948.27;1767232;81;20232;-57
2022/04/08 16:13:22;;;;;;;;;;;;;;;15.99;51.16;98956.52;1767258;81;20219;-59
2022/04/08 16:16:28;;;;;;;;;;;;;;;15.84;51.78;98955.37;1768209;81;20224;-57
2022/04/08 16:19:35;;;;;;;;;;;;;;;15.68;52.50;98962.45;1768109;81;20559;-57
2022/04/08 16:22:40;;;;;;;;;;;;;;;15.46;53.17;98968.31;1768623;81;20168;-57
2022/04/08 16:25:47;;;;;;;;;;;;;;;15.30;53.75;98988.31;1768496;81;20195;-59
2022/04/08 16:28:52;;;;;;;;;;;;;;;15.17;54.21;98995.46;1767730;81;20212;-59